Sea Drift — WDC2818 — position and weather

sailwx.info

Track history (hours):
 
Tides and Currents Weather Stations Pressure Air Temp Water Temp Dewpoint Dewpoint Depression Visibility Wind Speed Wind Dir Waves Ship Positions

Sea Drift

Owner: Marquette Transportation Company Gulf-Inland, LLC, Jefferson, LA. More information available from US FCC via Universal Licensing System and Coast Guard Vessel Documentation Center.

Last reported at 2016-Dec-04 03:21 UTC. Time now 2016-Dec-06 18:04 UTC.
Position N 29°37' W 094°57'.

Length 23 m; draft 3 m.

Type: Towing. MMSI: 366998080.

Date/timePositionNaut miles runAvg speedWind from/ knotsBaromVisibWave heightAir tempDewpointWater temp
2016-Dec-04 03:21N 29°37' W 094°57'4 4.4
2016-Dec-04 02:33N 29°37' W 095°01'0 0.1
2016-Dec-04 01:33N 29°37' W 095°01'0 0.0
2016-Dec-04 00:33N 29°37' W 095°01'0 0.0
2016-Dec-03 23:33N 29°37' W 095°01'0 0.0
2016-Dec-03 22:33N 29°37' W 095°01'0 0.0
2016-Dec-03 21:33N 29°37' W 095°01'0 0.0
2016-Dec-03 20:33N 29°37' W 095°01'0 0.0
2016-Dec-03 19:33N 29°37' W 095°01'0 0.0
2016-Dec-03 18:33N 29°37' W 095°01'0 0.0
2016-Dec-03 17:33N 29°37' W 095°01'0 0.0
2016-Dec-03 16:33N 29°37' W 095°01'0 0.0
2016-Dec-03 15:33N 29°37' W 095°01'0 0.0
2016-Dec-03 14:33N 29°37' W 095°01'0 0.0
2016-Dec-03 13:33N 29°37' W 095°01'0 0.0
2016-Dec-03 12:33N 29°37' W 095°01'0 0.0
2016-Dec-03 11:33N 29°37' W 095°01'0 0.0
2016-Dec-03 10:32N 29°37' W 095°01'0 0.0
2016-Dec-03 09:32N 29°37' W 095°01'0 0.0
2016-Dec-03 08:16N 29°37' W 095°01'0 0.0
2016-Dec-03 07:28N 29°37' W 095°01'0 0.0
2016-Dec-03 06:33N 29°37' W 095°01'0 0.0
2016-Dec-03 05:32N 29°37' W 095°01'0 0.0
2016-Dec-03 04:31N 29°37' W 095°01'0 0.0
2016-Dec-03 03:33N 29°37' W 095°01'0 0.0
2016-Dec-03 02:30N 29°37' W 095°01'0 0.0
2016-Dec-03 01:31N 29°37' W 095°01'0 0.0
2016-Dec-03 00:33N 29°37' W 095°01'4 3.2
2016-Dec-02 23:15N 29°40' W 094°59'4 5.4
2016-Dec-02 22:33N 29°43' W 095°01'4 4.4
2016-Dec-02 21:33N 29°45' W 095°06'0 0.1
2016-Dec-02 19:29N 29°45' W 095°06'0 0.2
2016-Dec-02 18:26N 29°46' W 095°06'0 0.0
2016-Dec-02 17:21N 29°46' W 095°06'0 0.1
2016-Dec-02 16:33N 29°46' W 095°06'1 0.8
2016-Dec-02 15:33N 29°46' W 095°05'0 0.1
2016-Dec-02 14:31N 29°46' W 095°05'1 0.7
2016-Dec-02 13:33N 29°46' W 095°05'76 3.8
2016-Dec-01 17:21N 30°04' W 093°39'4 5.3
2016-Dec-01 16:33N 30°04' W 093°34'5 4.8
2016-Dec-01 15:33N 30°04' W 093°29'5 4.8
2016-Dec-01 14:33N 30°04' W 093°23'3 3.3
2016-Dec-01 13:33N 30°05' W 093°20'2 2.0
2016-Dec-01 12:33N 30°05' W 093°17'2 1.6
2016-Dec-01 11:33N 30°04' W 093°16'0 0.2
2016-Dec-01 10:33N 30°04' W 093°16'3 3.1
2016-Dec-01 09:33N 30°01' W 093°14'3 3.4
2016-Dec-01 08:33N 29°58' W 093°12'4 4.1
2016-Dec-01 07:33N 29°56' W 093°08'24 4.4
2016-Dec-01 02:11N 29°56' W 092°41'2 3.7
2016-Dec-01 01:33N 29°56' W 092°38'4 4.3
2016-Dec-01 00:32N 29°54' W 092°33'4 4.2
2016-Nov-30 23:33N 29°54' W 092°29'4 4.2
2016-Nov-30 22:33N 29°53' W 092°24'4 3.6
2016-Nov-30 21:33N 29°51' W 092°21'3 2.9
2016-Nov-30 20:33N 29°50' W 092°18'0 0.5
2016-Nov-30 19:33N 29°49' W 092°17'1 1.2
2016-Nov-30 18:33N 29°49' W 092°16'3 2.8
2016-Nov-30 17:33N 29°47' W 092°13'3 3.2
2016-Nov-30 16:33N 29°47' W 092°10'3 3.0
2016-Nov-30 15:33N 29°48' W 092°06'0 0.1
2016-Nov-30 14:33N 29°48' W 092°06'1 1.4
2016-Nov-30 13:33N 29°47' W 092°08'4 3.9
2016-Nov-30 12:33N 29°47' W 092°12'3 2.5
2016-Nov-30 11:33N 29°48' W 092°15'2 2.3
2016-Nov-30 10:33N 29°49' W 092°17'4 4.0
2016-Nov-30 09:33N 29°51' W 092°22'2 2.3
2016-Nov-30 08:33N 29°53' W 092°23'3 3.4
2016-Nov-30 07:33N 29°54' W 092°27'34 4.2
2016-Nov-29 23:20N 29°56' W 093°07'3 4.1
2016-Nov-29 22:33N 29°57' W 093°10'5 4.8
2016-Nov-29 21:33N 30°01' W 093°14'4 4.2
2016-Nov-29 20:33N 30°04' W 093°16'1 0.6
2016-Nov-29 19:33N 30°05' W 093°17'2 1.9
2016-Nov-29 18:33N 30°06' W 093°18'0 0.0
2016-Nov-29 17:33N 30°06' W 093°18'1 0.9
2016-Nov-29 16:33N 30°06' W 093°19'3 3.3
2016-Nov-29 15:33N 30°04' W 093°22'0 0.0
2016-Nov-29 14:33N 30°04' W 093°22'0 0.0
2016-Nov-29 13:33N 30°04' W 093°22'0 0.0
2016-Nov-29 12:33N 30°04' W 093°22'0 0.0
2016-Nov-29 11:33N 30°04' W 093°22'0 0.0
2016-Nov-29 10:33N 30°04' W 093°22'0 0.0
2016-Nov-29 09:33N 30°04' W 093°22'0 0.1
2016-Nov-29 08:33N 30°04' W 093°22'0 0.0
2016-Nov-29 07:33N 30°04' W 093°22'1 0.6
2016-Nov-29 06:33N 30°04' W 093°23'3 2.7
2016-Nov-29 05:33N 30°04' W 093°26'5 5.2
2016-Nov-29 04:33N 30°04' W 093°32'6 5.2
2016-Nov-29 03:29N 30°04' W 093°38'73 4.0
2016-Nov-28 09:22N 29°32' W 094°54'5 6.5
2016-Nov-28 08:33N 29°37' W 094°57'6 6.0
2016-Nov-28 07:31N 29°42' W 095°01'4 3.7
2016-Nov-28 06:32N 29°45' W 095°04'2 0.3
2016-Nov-28 01:33N 29°46' W 095°05'5 4.8
2016-Nov-28 00:33N 29°43' W 095°01'5 5.3
2016-Nov-27 23:33N 29°38' W 094°58'6 5.6
2016-Nov-27 22:33N 29°33' W 094°55'7 6.2
2016-Nov-27 21:28N 29°27' W 094°51'55 3.7
2016-Nov-27 06:25N 29°54' W 093°55'3 1.1
2016-Nov-27 03:24N 29°56' W 093°52'13 2.2
2016-Nov-26 21:29N 30°04' W 093°40'4 4.1
2016-Nov-26 20:33N 30°04' W 093°35'4 3.8
2016-Nov-26 19:33N 30°04' W 093°31'4 3.8
2016-Nov-26 18:33N 30°04' W 093°26'3 3.1
2016-Nov-26 17:33N 30°04' W 093°23'3 2.6
2016-Nov-26 16:33N 30°05' W 093°20'2 2.3
2016-Nov-26 15:33N 30°05' W 093°18'2 1.6
2016-Nov-26 14:33N 30°04' W 093°16'3 3.4
2016-Nov-26 13:33N 30°01' W 093°14'2 2.1
2016-Nov-26 12:33N 29°59' W 093°13'3 2.8
2016-Nov-26 11:33N 29°57' W 093°11'4 3.5
2016-Nov-26 10:33N 29°56' W 093°07'17 3.9
2016-Nov-26 06:17N 29°58' W 092°48'12 4.0
2016-Nov-26 03:18N 29°55' W 092°35'3 4.0
2016-Nov-26 02:32N 29°54' W 092°31'4 4.0
2016-Nov-26 01:33N 29°53' W 092°27'3 3.1
2016-Nov-26 00:33N 29°53' W 092°23'4 3.5
2016-Nov-25 23:33N 29°51' W 092°20'1 1.0
2016-Nov-25 22:33N 29°50' W 092°19'3 3.2
2016-Nov-25 21:33N 29°49' W 092°16'3 3.0
2016-Nov-25 20:33N 29°47' W 092°13'2 1.8
2016-Nov-25 19:33N 29°47' W 092°11'3 3.1
2016-Nov-25 18:33N 29°47' W 092°07'4 3.6
2016-Nov-25 17:33N 29°49' W 092°04'4 3.6
2016-Nov-25 16:33N 29°50' W 091°60'2 2.3
2016-Nov-25 15:33N 29°50' W 091°57'4 3.6
2016-Nov-25 14:33N 29°51' W 091°53'3 3.2
2016-Nov-25 13:33N 29°49' W 091°50'4 3.6
2016-Nov-25 12:33N 29°46' W 091°47'8 3.9
2016-Nov-25 10:27N 29°46' W 091°38'8 2.7
2016-Nov-25 07:20N 29°41' W 091°30'0 0.0
2016-Nov-25 06:31N 29°41' W 091°30'0 0.0
2016-Nov-25 05:32N 29°41' W 091°30'0 0.0
2016-Nov-25 04:29N 29°41' W 091°30'0 0.0
2016-Nov-25 03:33N 29°41' W 091°30'0 0.0
2016-Nov-25 02:13N 29°41' W 091°30'0 0.0
2016-Nov-25 01:33N 29°41' W 091°30'0 0.0
2016-Nov-25 00:33N 29°41' W 091°30'14 1.0
2016-Nov-24 10:33N 29°46' W 091°45'7 3.7
2016-Nov-24 08:33N 29°51' W 091°51'3 3.5
2016-Nov-24 07:33N 29°51' W 091°55'0 0.0
2016-Nov-24 06:33N 29°51' W 091°55'0 0.1
2016-Nov-24 05:33N 29°51' W 091°55'1 0.6
2016-Nov-24 04:33N 29°51' W 091°56'1 0.8
2016-Nov-24 03:33N 29°50' W 091°57'  
Track history (hours):
 
Tides and Currents Weather Stations Pressure Air Temp Water Temp Dewpoint Dewpoint Depression Visibility Wind Speed Wind Dir Waves Ship Positions

Sea Drift

Owner: Marquette Transportation Company Gulf-Inland, LLC, Jefferson, LA. More information available from US FCC via Universal Licensing System and Coast Guard Vessel Documentation Center.

Last reported at 2016-Dec-04 03:21 UTC. Time now 2016-Dec-06 18:04 UTC.
Position N 29°37' W 094°57'.

Length 23 m; draft 3 m.

Type: Towing. MMSI: 366998080.

Date/timePositionNaut miles runAvg speedWind from/ knotsBaromVisibWave heightAir tempDewpointWater temp
2016-Dec-04 03:21N 29°37' W 094°57'4 4.4
2016-Dec-04 02:33N 29°37' W 095°01'0 0.1
2016-Dec-04 01:33N 29°37' W 095°01'0 0.0
2016-Dec-04 00:33N 29°37' W 095°01'0 0.0
2016-Dec-03 23:33N 29°37' W 095°01'0 0.0
2016-Dec-03 22:33N 29°37' W 095°01'0 0.0
2016-Dec-03 21:33N 29°37' W 095°01'0 0.0
2016-Dec-03 20:33N 29°37' W 095°01'0 0.0
2016-Dec-03 19:33N 29°37' W 095°01'0 0.0
2016-Dec-03 18:33N 29°37' W 095°01'0 0.0
2016-Dec-03 17:33N 29°37' W 095°01'0 0.0
2016-Dec-03 16:33N 29°37' W 095°01'0 0.0
2016-Dec-03 15:33N 29°37' W 095°01'0 0.0
2016-Dec-03 14:33N 29°37' W 095°01'0 0.0
2016-Dec-03 13:33N 29°37' W 095°01'0 0.0
2016-Dec-03 12:33N 29°37' W 095°01'0 0.0
2016-Dec-03 11:33N 29°37' W 095°01'0 0.0
2016-Dec-03 10:32N 29°37' W 095°01'0 0.0
2016-Dec-03 09:32N 29°37' W 095°01'0 0.0
2016-Dec-03 08:16N 29°37' W 095°01'0 0.0
2016-Dec-03 07:28N 29°37' W 095°01'0 0.0
2016-Dec-03 06:33N 29°37' W 095°01'0 0.0
2016-Dec-03 05:32N 29°37' W 095°01'0 0.0
2016-Dec-03 04:31N 29°37' W 095°01'0 0.0
2016-Dec-03 03:33N 29°37' W 095°01'0 0.0
2016-Dec-03 02:30N 29°37' W 095°01'0 0.0
2016-Dec-03 01:31N 29°37' W 095°01'0 0.0
2016-Dec-03 00:33N 29°37' W 095°01'4 3.2
2016-Dec-02 23:15N 29°40' W 094°59'4 5.4
2016-Dec-02 22:33N 29°43' W 095°01'4 4.4
2016-Dec-02 21:33N 29°45' W 095°06'0 0.1
2016-Dec-02 19:29N 29°45' W 095°06'0 0.2
2016-Dec-02 18:26N 29°46' W 095°06'0 0.0
2016-Dec-02 17:21N 29°46' W 095°06'0 0.1
2016-Dec-02 16:33N 29°46' W 095°06'1 0.8
2016-Dec-02 15:33N 29°46' W 095°05'0 0.1
2016-Dec-02 14:31N 29°46' W 095°05'1 0.7
2016-Dec-02 13:33N 29°46' W 095°05'76 3.8
2016-Dec-01 17:21N 30°04' W 093°39'4 5.3
2016-Dec-01 16:33N 30°04' W 093°34'5 4.8
2016-Dec-01 15:33N 30°04' W 093°29'5 4.8
2016-Dec-01 14:33N 30°04' W 093°23'3 3.3
2016-Dec-01 13:33N 30°05' W 093°20'2 2.0
2016-Dec-01 12:33N 30°05' W 093°17'2 1.6
2016-Dec-01 11:33N 30°04' W 093°16'0 0.2
2016-Dec-01 10:33N 30°04' W 093°16'3 3.1
2016-Dec-01 09:33N 30°01' W 093°14'3 3.4
2016-Dec-01 08:33N 29°58' W 093°12'4 4.1
2016-Dec-01 07:33N 29°56' W 093°08'24 4.4
2016-Dec-01 02:11N 29°56' W 092°41'2 3.7
2016-Dec-01 01:33N 29°56' W 092°38'4 4.3
2016-Dec-01 00:32N 29°54' W 092°33'4 4.2
2016-Nov-30 23:33N 29°54' W 092°29'4 4.2
2016-Nov-30 22:33N 29°53' W 092°24'4 3.6
2016-Nov-30 21:33N 29°51' W 092°21'3 2.9
2016-Nov-30 20:33N 29°50' W 092°18'0 0.5
2016-Nov-30 19:33N 29°49' W 092°17'1 1.2
2016-Nov-30 18:33N 29°49' W 092°16'3 2.8
2016-Nov-30 17:33N 29°47' W 092°13'3 3.2
2016-Nov-30 16:33N 29°47' W 092°10'3 3.0
2016-Nov-30 15:33N 29°48' W 092°06'0 0.1
2016-Nov-30 14:33N 29°48' W 092°06'1 1.4
2016-Nov-30 13:33N 29°47' W 092°08'4 3.9
2016-Nov-30 12:33N 29°47' W 092°12'3 2.5
2016-Nov-30 11:33N 29°48' W 092°15'2 2.3
2016-Nov-30 10:33N 29°49' W 092°17'4 4.0
2016-Nov-30 09:33N 29°51' W 092°22'2 2.3
2016-Nov-30 08:33N 29°53' W 092°23'3 3.4
2016-Nov-30 07:33N 29°54' W 092°27'34 4.2
2016-Nov-29 23:20N 29°56' W 093°07'3 4.1
2016-Nov-29 22:33N 29°57' W 093°10'5 4.8
2016-Nov-29 21:33N 30°01' W 093°14'4 4.2
2016-Nov-29 20:33N 30°04' W 093°16'1 0.6
2016-Nov-29 19:33N 30°05' W 093°17'2 1.9
2016-Nov-29 18:33N 30°06' W 093°18'0 0.0
2016-Nov-29 17:33N 30°06' W 093°18'1 0.9
2016-Nov-29 16:33N 30°06' W 093°19'3 3.3
2016-Nov-29 15:33N 30°04' W 093°22'0 0.0
2016-Nov-29 14:33N 30°04' W 093°22'0 0.0
2016-Nov-29 13:33N 30°04' W 093°22'0 0.0
2016-Nov-29 12:33N 30°04' W 093°22'0 0.0
2016-Nov-29 11:33N 30°04' W 093°22'0 0.0
2016-Nov-29 10:33N 30°04' W 093°22'0 0.0
2016-Nov-29 09:33N 30°04' W 093°22'0 0.1
2016-Nov-29 08:33N 30°04' W 093°22'0 0.0
2016-Nov-29 07:33N 30°04' W 093°22'1 0.6
2016-Nov-29 06:33N 30°04' W 093°23'3 2.7
2016-Nov-29 05:33N 30°04' W 093°26'5 5.2
2016-Nov-29 04:33N 30°04' W 093°32'6 5.2
2016-Nov-29 03:29N 30°04' W 093°38'73 4.0
2016-Nov-28 09:22N 29°32' W 094°54'5 6.5
2016-Nov-28 08:33N 29°37' W 094°57'6 6.0
2016-Nov-28 07:31N 29°42' W 095°01'4 3.7
2016-Nov-28 06:32N 29°45' W 095°04'2 0.3
2016-Nov-28 01:33N 29°46' W 095°05'5 4.8
2016-Nov-28 00:33N 29°43' W 095°01'5 5.3
2016-Nov-27 23:33N 29°38' W 094°58'6 5.6
2016-Nov-27 22:33N 29°33' W 094°55'7 6.2
2016-Nov-27 21:28N 29°27' W 094°51'55 3.7
2016-Nov-27 06:25N 29°54' W 093°55'3 1.1
2016-Nov-27 03:24N 29°56' W 093°52'13 2.2
2016-Nov-26 21:29N 30°04' W 093°40'4 4.1
2016-Nov-26 20:33N 30°04' W 093°35'4 3.8
2016-Nov-26 19:33N 30°04' W 093°31'4 3.8
2016-Nov-26 18:33N 30°04' W 093°26'3 3.1
2016-Nov-26 17:33N 30°04' W 093°23'3 2.6
2016-Nov-26 16:33N 30°05' W 093°20'2 2.3
2016-Nov-26 15:33N 30°05' W 093°18'2 1.6
2016-Nov-26 14:33N 30°04' W 093°16'3 3.4
2016-Nov-26 13:33N 30°01' W 093°14'2 2.1
2016-Nov-26 12:33N 29°59' W 093°13'3 2.8
2016-Nov-26 11:33N 29°57' W 093°11'4 3.5
2016-Nov-26 10:33N 29°56' W 093°07'17 3.9
2016-Nov-26 06:17N 29°58' W 092°48'12 4.0
2016-Nov-26 03:18N 29°55' W 092°35'3 4.0
2016-Nov-26 02:32N 29°54' W 092°31'4 4.0
2016-Nov-26 01:33N 29°53' W 092°27'3 3.1
2016-Nov-26 00:33N 29°53' W 092°23'4 3.5
2016-Nov-25 23:33N 29°51' W 092°20'1 1.0
2016-Nov-25 22:33N 29°50' W 092°19'3 3.2
2016-Nov-25 21:33N 29°49' W 092°16'3 3.0
2016-Nov-25 20:33N 29°47' W 092°13'2 1.8
2016-Nov-25 19:33N 29°47' W 092°11'3 3.1
2016-Nov-25 18:33N 29°47' W 092°07'4 3.6
2016-Nov-25 17:33N 29°49' W 092°04'4 3.6
2016-Nov-25 16:33N 29°50' W 091°60'2 2.3
2016-Nov-25 15:33N 29°50' W 091°57'4 3.6
2016-Nov-25 14:33N 29°51' W 091°53'3 3.2
2016-Nov-25 13:33N 29°49' W 091°50'4 3.6
2016-Nov-25 12:33N 29°46' W 091°47'8 3.9
2016-Nov-25 10:27N 29°46' W 091°38'8 2.7
2016-Nov-25 07:20N 29°41' W 091°30'0 0.0
2016-Nov-25 06:31N 29°41' W 091°30'0 0.0
2016-Nov-25 05:32N 29°41' W 091°30'0 0.0
2016-Nov-25 04:29N 29°41' W 091°30'0 0.0
2016-Nov-25 03:33N 29°41' W 091°30'0 0.0
2016-Nov-25 02:13N 29°41' W 091°30'0 0.0
2016-Nov-25 01:33N 29°41' W 091°30'0 0.0
2016-Nov-25 00:33N 29°41' W 091°30'14 1.0
2016-Nov-24 10:33N 29°46' W 091°45'7 3.7
2016-Nov-24 08:33N 29°51' W 091°51'3 3.5
2016-Nov-24 07:33N 29°51' W 091°55'0 0.0
2016-Nov-24 06:33N 29°51' W 091°55'0 0.1
2016-Nov-24 05:33N 29°51' W 091°55'1 0.6
2016-Nov-24 04:33N 29°51' W 091°56'1 0.8
2016-Nov-24 03:33N 29°50' W 091°57'  

Dump ship's entire track history